Time;durP1;ratioP1;P1;durP2;ratioP2;P2;SDS_P1;SDS_P2;PMS_P1;PMS_P2;Temp;Humidity;BMP_temperature;BMP_pressure;BME280_temperature;BME280_humidity;BME280_pressure;Samples;Min_cycle;Max_cycle;Signal;HPM_P1;HPM_P2
2023/01/26 00:00:51;;;;;;;68.33;34.00;;;;;;;;;;5010846;28;20511;-56
2023/01/26 00:03:18;;;;;;;68.27;35.83;;;;;;;;;;5010976;28;20495;-56
2023/01/26 00:05:44;;;;;;;67.23;34.13;;;;;;;;;;5010851;28;20455;-56
2023/01/26 00:08:11;;;;;;;70.27;34.67;;;;;;;;;;5014405;28;20539;-56
2023/01/26 00:10:39;;;;;;;72.07;35.23;;;;;;;;;;5014296;28;20432;-55
2023/01/26 00:13:06;;;;;;;67.93;34.13;;;;;;;;;;5014462;28;20491;-56
2023/01/26 00:15:32;;;;;;;71.33;34.63;;;;;;;;;;5014149;28;20548;-56
2023/01/26 00:17:58;;;;;;;64.93;33.93;;;;;;;;;;5014285;28;20818;-56
2023/01/26 00:20:24;;;;;;;69.33;33.67;;;;;;;;;;5012351;28;20432;-57
2023/01/26 00:22:50;;;;;;;64.00;32.73;;;;;;;;;;5012646;28;20440;-57
2023/01/26 00:25:16;;;;;;;73.03;35.63;;;;;;;;;;5014090;28;20202;-54
2023/01/26 00:27:43;;;;;;;62.00;32.73;;;;;;;;;;5014275;28;20201;-56
2023/01/26 00:30:10;;;;;;;70.40;35.37;;;;;;;;;;5014002;28;20444;-58
2023/01/26 00:32:36;;;;;;;70.27;33.70;;;;;;;;;;5014080;28;20563;-56
2023/01/26 00:35:02;;;;;;;64.63;34.83;;;;;;;;;;5013938;28;20437;-57
2023/01/26 00:37:28;;;;;;;67.47;35.10;;;;;;;;;;5013924;28;20480;-56
2023/01/26 00:39:54;;;;;;;68.00;34.20;;;;;;;;;;5013866;28;20496;-56
2023/01/26 00:42:20;;;;;;;65.73;33.47;;;;;;;;;;5013854;28;20677;-54
2023/01/26 00:44:48;;;;;;;74.23;33.80;;;;;;;;;;5013479;28;20716;-55
2023/01/26 00:47:14;;;;;;;77.00;37.60;;;;;;;;;;5013843;28;20433;-56
2023/01/26 00:49:40;;;;;;;83.10;37.07;;;;;;;;;;5013562;28;20799;-56
2023/01/26 00:52:06;;;;;;;80.70;37.67;;;;;;;;;;5013511;28;21000;-56
2023/01/26 00:54:32;;;;;;;81.17;39.13;;;;;;;;;;5013592;28;20519;-56
2023/01/26 00:56:58;;;;;;;82.27;37.53;;;;;;;;;;5013643;28;20480;-56
2023/01/26 00:59:24;;;;;;;74.70;34.60;;;;;;;;;;5013055;28;20512;-56
2023/01/26 01:01:53;;;;;;;70.30;35.00;;;;;;;;;;5013747;28;20437;-56
2023/01/26 01:04:19;;;;;;;73.67;34.87;;;;;;;;;;5013463;28;20452;-56
2023/01/26 01:06:45;;;;;;;76.73;36.13;;;;;;;;;;5013371;28;20474;-56
2023/01/26 01:09:11;;;;;;;76.13;34.50;;;;;;;;;;5013398;28;20498;-56
2023/01/26 01:11:37;;;;;;;80.37;37.50;;;;;;;;;;5013200;28;20444;-55
2023/01/26 01:14:03;;;;;;;72.43;37.00;;;;;;;;;;5013327;28;20285;-56
2023/01/26 01:16:29;;;;;;;79.70;37.77;;;;;;;;;;5013319;28;20571;-55
2023/01/26 01:18:56;;;;;;;81.03;38.80;;;;;;;;;;5012255;28;20931;-55
2023/01/26 01:21:23;;;;;;;78.97;38.20;;;;;;;;;;5013042;28;20456;-55
2023/01/26 01:23:49;;;;;;;82.27;37.63;;;;;;;;;;5013152;28;20429;-56
2023/01/26 01:26:15;;;;;;;88.57;39.70;;;;;;;;;;5013089;28;21024;-56
2023/01/26 01:28:42;;;;;;;85.07;38.00;;;;;;;;;;5012926;28;20453;-56
2023/01/26 01:31:09;;;;;;;78.27;35.97;;;;;;;;;;5012999;28;20469;-56
2023/01/26 01:33:35;;;;;;;81.30;37.80;;;;;;;;;;5012764;28;20535;-57
2023/01/26 01:36:04;;;;;;;78.20;38.13;;;;;;;;;;5012764;28;20477;-56
2023/01/26 01:38:30;;;;;;;80.33;38.80;;;;;;;;;;5012902;28;20445;-56
2023/01/26 01:40:56;;;;;;;71.27;37.03;;;;;;;;;;5013054;28;20515;-56
2023/01/26 01:43:22;;;;;;;76.83;38.27;;;;;;;;;;5012727;28;20190;-56
2023/01/26 01:45:49;;;;;;;69.10;34.77;;;;;;;;;;5012583;28;20535;-56
2023/01/26 01:48:19;;;;;;;80.03;37.47;;;;;;;;;;5012739;28;20801;-56
2023/01/26 01:50:45;;;;;;;77.07;36.63;;;;;;;;;;5012836;28;20941;-56
2023/01/26 01:53:15;;;;;;;78.57;37.40;;;;;;;;;;5012625;28;20922;-56
2023/01/26 01:55:41;;;;;;;77.90;36.97;;;;;;;;;;5012415;28;20448;-56
2023/01/26 01:58:08;;;;;;;75.37;37.17;;;;;;;;;;5012394;28;21024;-56
2023/01/26 02:00:34;;;;;;;76.87;37.57;;;;;;;;;;5012407;28;20206;-56
2023/01/26 02:03:10;;;;;;;85.80;38.67;;;;;;;;;;5012625;28;20471;-56
2023/01/26 02:05:38;;;;;;;84.80;39.63;;;;;;;;;;5012321;28;20432;-57
2023/01/26 02:08:05;;;;;;;82.30;36.93;;;;;;;;;;5012302;28;20433;-56
2023/01/26 02:10:33;;;;;;;84.83;38.37;;;;;;;;;;5012225;28;20433;-56
2023/01/26 02:12:59;;;;;;;80.60;36.90;;;;;;;;;;5012311;28;20927;-56
2023/01/26 02:15:25;;;;;;;83.60;38.77;;;;;;;;;;5012079;28;20441;-56
2023/01/26 02:17:52;;;;;;;90.97;39.47;;;;;;;;;;5012161;28;20575;-57
2023/01/26 02:20:21;;;;;;;97.53;40.83;;;;;;;;;;5012004;28;20440;-56
2023/01/26 02:22:52;;;;;;;79.43;36.57;;;;;;;;;;5012213;28;20452;-57
2023/01/26 02:25:21;;;;;;;80.87;36.87;;;;;;;;;;5012074;28;20456;-56
2023/01/26 02:27:49;;;;;;;89.33;38.30;;;;;;;;;;5012011;28;20487;-56
2023/01/26 02:30:15;;;;;;;85.03;38.93;;;;;;;;;;5011976;28;20441;-56
2023/01/26 02:32:41;;;;;;;81.40;36.00;;;;;;;;;;5011934;28;20988;-56
2023/01/26 02:35:08;;;;;;;77.40;37.17;;;;;;;;;;5011974;28;20483;-56
2023/01/26 02:37:34;;;;;;;80.67;37.83;;;;;;;;;;5011744;28;20505;-56
2023/01/26 02:40:01;;;;;;;74.20;36.77;;;;;;;;;;5011958;28;20575;-56
2023/01/26 02:42:40;;;;;;;81.23;37.93;;;;;;;;;;5011875;28;20655;-56
2023/01/26 02:45:09;;;;;;;82.47;37.20;;;;;;;;;;5011675;28;20482;-56
2023/01/26 02:47:35;;;;;;;80.73;37.33;;;;;;;;;;5011648;28;20615;-56
2023/01/26 02:50:01;;;;;;;74.53;36.73;;;;;;;;;;5011837;28;20934;-56
2023/01/26 02:52:28;;;;;;;76.20;36.33;;;;;;;;;;5011821;28;20438;-56
2023/01/26 02:57:40;;;;;;;74.63;35.63;;;;;;;;;;5011515;28;20483;-56
2023/01/26 03:00:08;;;;;;;73.13;35.23;;;;;;;;;;5011645;28;20472;-56
2023/01/26 03:02:36;;;;;;;80.90;37.63;;;;;;;;;;5011636;28;20440;-56
2023/01/26 03:05:03;;;;;;;78.70;37.70;;;;;;;;;;5011379;28;20927;-56
2023/01/26 03:07:29;;;;;;;74.30;35.17;;;;;;;;;;5011477;28;20480;-56
2023/01/26 03:09:57;;;;;;;80.17;36.10;;;;;;;;;;5011570;28;20444;-56
2023/01/26 03:12:23;;;;;;;77.77;36.93;;;;;;;;;;5011451;28;20233;-57
2023/01/26 03:15:33;;;;;;;82.33;37.50;;;;;;;;;;5011432;28;20432;-58
2023/01/26 03:17:37;;;;;;;87.00;38.30;;;;;;;;;;5011093;28;20487;-57
2023/01/26 03:28:21;;;;;;;97.70;39.90;;;;;;;;;;5011355;28;20779;-57
2023/01/26 03:30:47;;;;;;;86.23;37.47;;;;;;;;;;5011250;28;20436;-57
2023/01/26 03:33:15;;;;;;;102.17;38.57;;;;;;;;;;5011533;28;20519;-57
2023/01/26 03:35:40;;;;;;;97.43;40.60;;;;;;;;;;5011250;28;20440;-57
2023/01/26 03:38:06;;;;;;;97.57;38.50;;;;;;;;;;5011237;28;20750;-55
2023/01/26 03:57:03;;;;;;;86.47;37.37;;;;;;;;;;5014893;28;20870;-57
2023/01/26 03:59:39;;;;;;;88.70;37.63;;;;;;;;;;5014806;28;21045;-56
2023/01/26 04:10:20;;;;;;;82.67;36.07;;;;;;;;;;5014681;28;20424;-57
2023/01/26 04:23:48;;;;;;;81.47;35.70;;;;;;;;;;5014279;28;21053;-57
2023/01/26 04:26:14;;;;;;;82.53;36.77;;;;;;;;;;5014512;28;20440;-56
2023/01/26 04:28:40;;;;;;;77.47;36.37;;;;;;;;;;5014149;28;20630;-56
2023/01/26 04:31:06;;;;;;;81.30;35.50;;;;;;;;;;5014179;28;21021;-56
2023/01/26 04:33:32;;;;;;;80.90;35.97;;;;;;;;;;5014055;28;20433;-56
2023/01/26 04:36:03;;;;;;;79.63;34.80;;;;;;;;;;5014147;28;20578;-56
2023/01/26 04:38:29;;;;;;;78.03;36.13;;;;;;;;;;5014252;28;20671;-56
2023/01/26 04:40:55;;;;;;;73.40;35.50;;;;;;;;;;5014066;28;20510;-56
2023/01/26 04:43:21;;;;;;;74.87;35.07;;;;;;;;;;5014049;28;20201;-57
2023/01/26 04:45:56;;;;;;;82.13;36.43;;;;;;;;;;5013650;28;20252;-57
2023/01/26 04:48:22;;;;;;;86.17;36.20;;;;;;;;;;5013883;28;20288;-56
2023/01/26 04:50:52;;;;;;;82.93;34.97;;;;;;;;;;5013675;28;20528;-56
2023/01/26 04:53:19;;;;;;;85.77;38.60;;;;;;;;;;5012589;28;20449;-57
2023/01/26 04:55:45;;;;;;;88.07;38.57;;;;;;;;;;5013795;28;20444;-57
2023/01/26 04:58:11;;;;;;;76.37;36.83;;;;;;;;;;5013830;28;20584;-57
2023/01/26 05:00:41;;;;;;;83.93;35.87;;;;;;;;;;5013476;28;20296;-57
2023/01/26 05:03:06;;;;;;;78.93;34.97;;;;;;;;;;5012777;28;20604;-57
2023/01/26 05:05:34;;;;;;;77.27;35.10;;;;;;;;;;5013374;28;20479;-57
2023/01/26 05:08:00;;;;;;;75.83;34.80;;;;;;;;;;5013498;28;20647;-57
2023/01/26 05:10:28;;;;;;;73.33;34.33;;;;;;;;;;5013536;28;20437;-59
2023/01/26 05:12:54;;;;;;;69.20;34.23;;;;;;;;;;5013387;28;20209;-56
2023/01/26 05:15:20;;;;;;;77.87;35.80;;;;;;;;;;5013286;28;20444;-57
2023/01/26 05:17:46;;;;;;;73.57;35.97;;;;;;;;;;5013242;28;20257;-56
2023/01/26 05:20:12;;;;;;;66.97;34.33;;;;;;;;;;5013294;28;20273;-57
2023/01/26 05:22:38;;;;;;;75.00;36.50;;;;;;;;;;5013133;28;20233;-56
2023/01/26 05:25:05;;;;;;;72.77;36.70;;;;;;;;;;5013118;28;20444;-56
2023/01/26 05:27:32;;;;;;;69.60;35.50;;;;;;;;;;5013086;28;20475;-56
2023/01/26 05:30:01;;;;;;;77.13;35.90;;;;;;;;;;5013455;28;20472;-57
2023/01/26 05:32:27;;;;;;;65.40;32.37;;;;;;;;;;5013070;28;20429;-57
2023/01/26 05:34:54;;;;;;;67.60;32.30;;;;;;;;;;5012940;28;20425;-57
2023/01/26 05:37:20;;;;;;;66.77;33.07;;;;;;;;;;5012878;28;20480;-57
2023/01/26 05:39:46;;;;;;;60.17;30.53;;;;;;;;;;5012859;28;20440;-56
2023/01/26 05:42:12;;;;;;;64.47;33.13;;;;;;;;;;5013107;28;20453;-57
2023/01/26 05:44:40;;;;;;;58.50;29.60;;;;;;;;;;5012658;28;20237;-58
2023/01/26 05:47:06;;;;;;;54.13;29.37;;;;;;;;;;5012835;28;20621;-57
2023/01/26 05:49:32;;;;;;;59.20;31.23;;;;;;;;;;5012695;28;20571;-57
2023/01/26 05:51:58;;;;;;;60.17;31.27;;;;;;;;;;5012911;28;20483;-56
2023/01/26 05:54:24;;;;;;;59.07;30.57;;;;;;;;;;5014263;28;20248;-57
2023/01/26 05:56:52;;;;;;;59.70;30.20;;;;;;;;;;5012659;28;20469;-58
2023/01/26 05:59:18;;;;;;;57.73;31.63;;;;;;;;;;5012588;28;20792;-57
2023/01/26 06:01:45;;;;;;;54.30;29.03;;;;;;;;;;5012647;28;20441;-57
2023/01/26 06:04:11;;;;;;;59.13;30.17;;;;;;;;;;5012298;28;20445;-57
2023/01/26 06:06:37;;;;;;;53.70;28.10;;;;;;;;;;5012396;28;20441;-57
2023/01/26 06:09:03;;;;;;;58.60;29.50;;;;;;;;;;5012451;28;20436;-58
2023/01/26 06:11:31;;;;;;;61.93;32.23;;;;;;;;;;5012472;28;20432;-57
2023/01/26 06:13:57;;;;;;;57.17;30.30;;;;;;;;;;5012351;28;20497;-57
2023/01/26 06:16:23;;;;;;;59.33;29.93;;;;;;;;;;5012101;28;20942;-57
2023/01/26 06:18:50;;;;;;;57.57;31.43;;;;;;;;;;5011645;28;20229;-57
2023/01/26 06:21:16;;;;;;;58.07;29.23;;;;;;;;;;5011882;28;20444;-57
2023/01/26 06:23:42;;;;;;;61.60;29.93;;;;;;;;;;5012120;28;20444;-57
2023/01/26 06:26:08;;;;;;;59.50;30.20;;;;;;;;;;5012131;28;20252;-56
2023/01/26 06:28:35;;;;;;;57.03;29.53;;;;;;;;;;5012040;28;20503;-56
2023/01/26 06:31:01;;;;;;;52.40;28.23;;;;;;;;;;5013437;28;20193;-56
2023/01/26 06:33:26;;;;;;;54.00;28.50;;;;;;;;;;5012244;28;20561;-57
2023/01/26 06:35:54;;;;;;;59.57;29.40;;;;;;;;;;5011949;28;20958;-57
2023/01/26 06:38:20;;;;;;;55.70;28.07;;;;;;;;;;5011990;28;20629;-57
2023/01/26 06:40:47;;;;;;;51.23;27.43;;;;;;;;;;5012163;28;20463;-57
2023/01/26 06:43:13;;;;;;;55.57;28.50;;;;;;;;;;5012196;28;20467;-57
2023/01/26 06:45:40;;;;;;;52.37;28.40;;;;;;;;;;5011752;28;20503;-56
2023/01/26 06:48:06;;;;;;;54.90;28.13;;;;;;;;;;5012763;28;20440;-56
2023/01/26 06:50:33;;;;;;;52.10;28.87;;;;;;;;;;5011576;28;20774;-56
2023/01/26 06:53:02;;;;;;;51.67;28.80;;;;;;;;;;5011967;28;20213;-57
2023/01/26 06:55:31;;;;;;;50.33;26.57;;;;;;;;;;5011946;28;20445;-56
2023/01/26 06:57:57;;;;;;;53.97;28.43;;;;;;;;;;5011856;28;20495;-56
2023/01/26 07:00:23;;;;;;;47.70;27.57;;;;;;;;;;5011673;28;20519;-56
2023/01/26 07:02:49;;;;;;;52.63;28.47;;;;;;;;;;5011562;28;20523;-55
2023/01/26 07:05:16;;;;;;;50.37;28.90;;;;;;;;;;5011653;28;20536;-57
2023/01/26 07:07:42;;;;;;;51.93;25.90;;;;;;;;;;5011634;28;20197;-55
2023/01/26 07:10:10;;;;;;;49.03;26.13;;;;;;;;;;5011751;28;20433;-55
2023/01/26 07:12:40;;;;;;;44.00;25.20;;;;;;;;;;5011705;28;20981;-55
2023/01/26 07:15:06;;;;;;;44.33;24.47;;;;;;;;;;5011958;28;20466;-55
2023/01/26 07:17:32;;;;;;;39.93;23.20;;;;;;;;;;5014925;28;20548;-54
2023/01/26 07:19:58;;;;;;;42.00;22.70;;;;;;;;;;5015625;28;20523;-54
2023/01/26 07:22:24;;;;;;;44.53;23.17;;;;;;;;;;5015650;28;20201;-54
2023/01/26 07:24:50;;;;;;;44.90;25.27;;;;;;;;;;5015794;28;20213;-54
2023/01/26 07:27:18;;;;;;;40.43;23.27;;;;;;;;;;5015888;28;20197;-55
2023/01/26 07:29:45;;;;;;;39.63;21.90;;;;;;;;;;5016092;28;20460;-54
2023/01/26 07:32:11;;;;;;;42.10;23.10;;;;;;;;;;5017122;28;20953;-55
2023/01/26 07:34:37;;;;;;;40.50;23.27;;;;;;;;;;5015307;28;20440;-55
2023/01/26 07:37:04;;;;;;;41.30;22.60;;;;;;;;;;5015334;28;20476;-54
2023/01/26 07:39:30;;;;;;;38.73;22.07;;;;;;;;;;5015427;28;20259;-54
2023/01/26 07:41:56;;;;;;;35.70;21.43;;;;;;;;;;5015905;28;20476;-54
2023/01/26 07:44:23;;;;;;;36.57;20.87;;;;;;;;;;5018599;28;20233;-55
2023/01/26 07:46:49;;;;;;;37.83;22.40;;;;;;;;;;5016094;28;20437;-55
2023/01/26 07:49:15;;;;;;;34.90;20.20;;;;;;;;;;5015120;28;20516;-54
2023/01/26 07:51:41;;;;;;;34.17;20.20;;;;;;;;;;5014868;28;20964;-55
2023/01/26 07:54:10;;;;;;;34.53;20.53;;;;;;;;;;5014951;28;20802;-55
2023/01/26 07:56:36;;;;;;;36.43;21.17;;;;;;;;;;5014847;28;20476;-54
2023/01/26 07:59:02;;;;;;;36.27;20.43;;;;;;;;;;5014980;28;20795;-54
2023/01/26 08:01:29;;;;;;;38.40;20.60;;;;;;;;;;5015199;28;20465;-54
2023/01/26 08:03:56;;;;;;;37.00;21.20;;;;;;;;;;5014582;28;20436;-54
2023/01/26 08:06:23;;;;;;;35.63;19.77;;;;;;;;;;5004385;28;20444;-55
2023/01/26 08:08:50;;;;;;;34.00;20.00;;;;;;;;;;5013905;28;20520;-57
2023/01/26 08:11:17;;;;;;;36.17;21.33;;;;;;;;;;5014529;28;20436;-56
2023/01/26 08:13:43;;;;;;;35.40;20.70;;;;;;;;;;5014335;28;20539;-56
2023/01/26 08:16:10;;;;;;;39.53;21.93;;;;;;;;;;5014393;28;20460;-56
2023/01/26 08:18:38;;;;;;;38.37;21.90;;;;;;;;;;5013803;28;20260;-56
2023/01/26 08:21:04;;;;;;;37.13;20.53;;;;;;;;;;5014184;28;20470;-55
2023/01/26 08:23:30;;;;;;;35.20;21.50;;;;;;;;;;5014275;28;20444;-55
2023/01/26 08:26:00;;;;;;;36.87;21.60;;;;;;;;;;5012061;28;20457;-56
2023/01/26 08:28:26;;;;;;;38.63;22.23;;;;;;;;;;5014026;28;20205;-55
2023/01/26 08:30:52;;;;;;;38.20;22.00;;;;;;;;;;5013837;28;20424;-54
2023/01/26 08:33:18;;;;;;;34.13;20.17;;;;;;;;;;5014383;28;20479;-54
2023/01/26 08:35:45;;;;;;;35.17;20.33;;;;;;;;;;5014636;28;20284;-54
2023/01/26 08:38:11;;;;;;;37.87;21.43;;;;;;;;;;5014723;28;20538;-54
2023/01/26 08:40:37;;;;;;;32.67;19.37;;;;;;;;;;5014446;28;20452;-55
2023/01/26 08:43:03;;;;;;;32.87;19.67;;;;;;;;;;5014667;28;20743;-55
2023/01/26 08:45:29;;;;;;;35.90;21.70;;;;;;;;;;5014249;28;20499;-54
2023/01/26 08:47:56;;;;;;;36.07;20.10;;;;;;;;;;5014209;28;20429;-54
2023/01/26 08:50:22;;;;;;;35.93;21.00;;;;;;;;;;5014178;28;21044;-54
2023/01/26 08:52:49;;;;;;;38.20;21.73;;;;;;;;;;5013960;28;20437;-54
2023/01/26 08:55:16;;;;;;;39.73;23.20;;;;;;;;;;5014276;28;20441;-54
2023/01/26 08:57:42;;;;;;;39.10;21.73;;;;;;;;;;5014333;28;20480;-54
2023/01/26 09:00:09;;;;;;;37.60;21.70;;;;;;;;;;5014819;28;20778;-54
2023/01/26 09:02:35;;;;;;;39.73;22.03;;;;;;;;;;5013703;28;20490;-54
2023/01/26 09:05:01;;;;;;;43.83;23.63;;;;;;;;;;5013643;28;20436;-53
2023/01/26 09:07:27;;;;;;;40.53;22.60;;;;;;;;;;5013872;28;20441;-53
2023/01/26 09:09:55;;;;;;;40.17;24.10;;;;;;;;;;5013590;28;20653;-54
2023/01/26 09:12:21;;;;;;;39.93;22.40;;;;;;;;;;5015782;28;20441;-53
2023/01/26 09:14:47;;;;;;;39.47;22.47;;;;;;;;;;5015293;28;20476;-54
2023/01/26 09:17:13;;;;;;;37.83;21.73;;;;;;;;;;5013720;28;20558;-51
2023/01/26 09:19:39;;;;;;;40.00;23.00;;;;;;;;;;5013277;28;20202;-49
2023/01/26 09:22:05;;;;;;;37.73;22.07;;;;;;;;;;5015525;28;20202;-54
2023/01/26 09:24:31;;;;;;;40.63;22.17;;;;;;;;;;5014630;28;20527;-51
2023/01/26 09:26:58;;;;;;;37.90;22.57;;;;;;;;;;5013109;28;20528;-52
2023/01/26 09:29:24;;;;;;;41.87;23.10;;;;;;;;;;5013392;28;20208;-55
2023/01/26 09:31:50;;;;;;;39.60;22.10;;;;;;;;;;5013265;28;20449;-52
2023/01/26 09:34:16;;;;;;;38.63;22.43;;;;;;;;;;5013371;28;20197;-52
2023/01/26 09:36:42;;;;;;;39.63;23.27;;;;;;;;;;5012989;28;20676;-52
2023/01/26 09:39:08;;;;;;;43.77;24.67;;;;;;;;;;5012443;28;20252;-52
2023/01/26 09:41:42;;;;;;;44.33;24.47;;;;;;;;;;5013105;28;20256;-52
2023/01/26 09:44:14;;;;;;;39.03;21.27;;;;;;;;;;5013072;28;20476;-52
2023/01/26 09:46:45;;;;;;;42.20;24.00;;;;;;;;;;5012898;28;20448;-53
2023/01/26 09:49:14;;;;;;;42.13;24.80;;;;;;;;;;5012879;28;20519;-52
2023/01/26 09:51:41;;;;;;;40.93;23.73;;;;;;;;;;5013038;28;20551;-52
2023/01/26 09:54:15;;;;;;;42.80;22.83;;;;;;;;;;5013031;28;20490;-53
2023/01/26 09:56:41;;;;;;;40.27;23.67;;;;;;;;;;5012852;28;20942;-51
2023/01/26 09:59:18;;;;;;;45.70;24.60;;;;;;;;;;5012944;28;20440;-52
2023/01/26 10:01:47;;;;;;;44.00;23.97;;;;;;;;;;5012932;28;20206;-52
2023/01/26 10:04:18;;;;;;;43.67;24.03;;;;;;;;;;5012774;28;20475;-53
2023/01/26 10:06:45;;;;;;;44.47;24.33;;;;;;;;;;4973591;28;21069;-54
2023/01/26 10:09:14;;;;;;;43.07;24.20;;;;;;;;;;4973526;28;20529;-53
2023/01/26 10:11:42;;;;;;;41.80;23.87;;;;;;;;;;4973256;28;20867;-53
2023/01/26 10:14:12;;;;;;;44.00;23.80;;;;;;;;;;4973264;28;20493;-52
2023/01/26 10:16:40;;;;;;;48.43;25.20;;;;;;;;;;4973251;28;20509;-53
2023/01/26 10:19:12;;;;;;;47.03;26.30;;;;;;;;;;4973289;28;21101;-52
2023/01/26 10:21:39;;;;;;;49.50;26.80;;;;;;;;;;4973401;28;20497;-52
2023/01/26 10:24:08;;;;;;;50.00;25.57;;;;;;;;;;4973300;28;20929;-52
2023/01/26 10:26:34;;;;;;;44.13;24.33;;;;;;;;;;4973441;28;20447;-52
2023/01/26 10:29:01;;;;;;;41.17;24.07;;;;;;;;;;4973265;28;20437;-53
2023/01/26 10:31:27;;;;;;;44.20;23.93;;;;;;;;;;4973247;28;20638;-53
2023/01/26 10:33:56;;;;;;;42.00;23.20;;;;;;;;;;4973053;28;20529;-52
2023/01/26 10:36:22;;;;;;;41.50;23.47;;;;;;;;;;4973389;28;20445;-52
2023/01/26 10:38:48;;;;;;;43.17;23.73;;;;;;;;;;4973029;28;20518;-53
2023/01/26 10:41:25;;;;;;;43.17;23.23;;;;;;;;;;4973232;28;20493;-52
2023/01/26 10:43:52;;;;;;;38.13;21.23;;;;;;;;;;4976310;28;20477;-53
2023/01/26 10:46:23;;;;;;;39.57;21.53;;;;;;;;;;4992535;28;20429;-52
2023/01/26 10:48:51;;;;;;;36.33;21.27;;;;;;;;;;4992319;28;20932;-53
2023/01/26 10:51:23;;;;;;;37.07;20.93;;;;;;;;;;4992322;28;20442;-53
2023/01/26 10:53:49;;;;;;;38.10;21.40;;;;;;;;;;4992249;28;20520;-53
2023/01/26 10:56:16;;;;;;;36.77;20.17;;;;;;;;;;4992505;28;20537;-52
2023/01/26 10:58:44;;;;;;;37.97;22.07;;;;;;;;;;4992210;28;20233;-56
2023/01/26 11:01:15;;;;;;;39.30;22.07;;;;;;;;;;4992356;28;20489;-52
2023/01/26 11:03:42;;;;;;;38.90;21.37;;;;;;;;;;4992287;28;20441;-51
2023/01/26 11:06:12;;;;;;;38.33;21.53;;;;;;;;;;4992404;28;20441;-54
2023/01/26 11:08:40;;;;;;;34.27;20.40;;;;;;;;;;4992243;28;20445;-53
2023/01/26 11:11:09;;;;;;;36.20;20.77;;;;;;;;;;4992220;28;20442;-53
2023/01/26 11:13:35;;;;;;;40.10;22.97;;;;;;;;;;4992187;28;20445;-53
2023/01/26 11:16:03;;;;;;;37.60;21.50;;;;;;;;;;4992221;28;20802;-52
2023/01/26 11:18:34;;;;;;;32.63;19.97;;;;;;;;;;4992198;28;20507;-52
2023/01/26 11:21:03;;;;;;;40.17;21.13;;;;;;;;;;4992321;28;20550;-52
2023/01/26 11:23:33;;;;;;;34.87;19.70;;;;;;;;;;4992318;28;20441;-53
2023/01/26 11:26:13;;;;;;;35.37;20.20;;;;;;;;;;4992560;28;20480;-53
2023/01/26 11:28:44;;;;;;;34.97;20.50;;;;;;;;;;4992027;28;20453;-54
2023/01/26 11:31:16;;;;;;;34.90;19.70;;;;;;;;;;4992088;28;20438;-54
2023/01/26 11:33:48;;;;;;;35.83;20.40;;;;;;;;;;4992157;28;20528;-53
2023/01/26 11:36:19;;;;;;;36.97;20.23;;;;;;;;;;4992163;28;20437;-52
2023/01/26 11:38:49;;;;;;;33.43;19.30;;;;;;;;;;4992016;28;20474;-52
2023/01/26 11:41:32;;;;;;;34.43;19.63;;;;;;;;;;4991841;28;20485;-52
2023/01/26 11:44:05;;;;;;;35.23;19.47;;;;;;;;;;4991466;28;21010;-52
2023/01/26 11:46:37;;;;;;;33.77;19.43;;;;;;;;;;4991745;28;20473;-55
2023/01/26 11:49:09;;;;;;;33.23;19.97;;;;;;;;;;4991772;28;20448;-54
2023/01/26 11:51:42;;;;;;;31.03;18.00;;;;;;;;;;4991644;28;21227;-56
2023/01/26 11:54:15;;;;;;;34.40;18.87;;;;;;;;;;4991614;28;20465;-55
2023/01/26 11:56:48;;;;;;;33.27;19.57;;;;;;;;;;4991423;28;20426;-54
2023/01/26 11:59:17;;;;;;;34.40;19.23;;;;;;;;;;4991822;28;20441;-54
2023/01/26 12:01:45;;;;;;;34.57;17.97;;;;;;;;;;4991615;28;20452;-55
2023/01/26 12:04:15;;;;;;;31.03;17.03;;;;;;;;;;4995198;28;20433;-54
2023/01/26 12:06:42;;;;;;;28.43;17.43;;;;;;;;;;4995006;28;20429;-54
2023/01/26 12:09:18;;;;;;;30.30;17.40;;;;;;;;;;4994973;28;20935;-54
2023/01/26 12:11:50;;;;;;;28.73;16.30;;;;;;;;;;4995196;28;20441;-54
2023/01/26 12:14:20;;;;;;;28.27;16.93;;;;;;;;;;4995168;28;20449;-54
2023/01/26 12:16:53;;;;;;;30.80;16.93;;;;;;;;;;4994745;28;20449;-53
2023/01/26 12:19:28;;;;;;;28.03;16.33;;;;;;;;;;4994905;28;20438;-53
2023/01/26 12:21:57;;;;;;;28.33;16.87;;;;;;;;;;4994725;28;20467;-54
2023/01/26 12:24:29;;;;;;;32.17;18.03;;;;;;;;;;4994950;28;20434;-54
2023/01/26 12:26:56;;;;;;;31.27;16.87;;;;;;;;;;4994729;28;20465;-54
2023/01/26 12:29:25;;;;;;;30.43;17.57;;;;;;;;;;4991049;28;21082;-55
2023/01/26 12:31:55;;;;;;;30.30;16.37;;;;;;;;;;4994385;28;20441;-54
2023/01/26 12:34:24;;;;;;;27.33;16.60;;;;;;;;;;4994648;28;21209;-55
2023/01/26 12:36:53;;;;;;;25.97;15.37;;;;;;;;;;4994610;28;20804;-56
2023/01/26 12:39:22;;;;;;;27.70;15.73;;;;;;;;;;4994726;28;20545;-56
2023/01/26 12:42:00;;;;;;;30.23;16.83;;;;;;;;;;4994241;28;20909;-50
2023/01/26 12:44:32;;;;;;;27.70;15.80;;;;;;;;;;4994138;28;20479;-50
2023/01/26 12:47:03;;;;;;;28.13;15.43;;;;;;;;;;4994218;28;20838;-50
2023/01/26 12:49:31;;;;;;;24.40;15.17;;;;;;;;;;4994400;28;20540;-50
2023/01/26 12:52:00;;;;;;;25.13;13.67;;;;;;;;;;4994177;28;20437;-50
2023/01/26 12:54:31;;;;;;;24.67;15.07;;;;;;;;;;4994337;28;20480;-51
2023/01/26 12:57:00;;;;;;;25.73;14.60;;;;;;;;;;4994069;28;20435;-50
2023/01/26 12:59:28;;;;;;;26.60;15.00;;;;;;;;;;4994191;28;20454;-51
2023/01/26 13:01:54;;;;;;;26.20;13.70;;;;;;;;;;4993721;28;20446;-51
2023/01/26 13:04:20;;;;;;;25.67;14.37;;;;;;;;;;4993848;28;20443;-54
2023/01/26 13:07:00;;;;;;;22.30;13.10;;;;;;;;;;4993956;28;20669;-52
2023/01/26 13:09:26;;;;;;;21.87;13.53;;;;;;;;;;4993969;28;20563;-55
2023/01/26 13:11:53;;;;;;;22.20;12.33;;;;;;;;;;4993690;28;20425;-54
2023/01/26 13:14:25;;;;;;;19.57;12.37;;;;;;;;;;4992625;28;20251;-58
2023/01/26 13:16:51;;;;;;;22.93;13.23;;;;;;;;;;4993247;28;20476;-60
2023/01/26 13:19:32;;;;;;;18.03;12.33;;;;;;;;;;4993512;28;20977;-60
2023/01/26 13:21:58;;;;;;;22.57;12.67;;;;;;;;;;4993636;28;20437;-60
2023/01/26 13:24:43;;;;;;;19.77;11.73;;;;;;;;;;4993646;28;20496;-60
2023/01/26 13:27:24;;;;;;;20.60;13.33;;;;;;;;;;4993410;28;20245;-59
2023/01/26 13:29:55;;;;;;;18.77;12.50;;;;;;;;;;4990624;28;20461;-58
2023/01/26 13:32:54;;;;;;;21.87;12.67;;;;;;;;;;4993389;28;20457;-58
2023/01/26 13:35:21;;;;;;;18.83;11.67;;;;;;;;;;4993191;28;20940;-59
2023/01/26 13:37:49;;;;;;;20.83;11.97;;;;;;;;;;4993076;28;21207;-58
2023/01/26 13:40:18;;;;;;;18.13;12.17;;;;;;;;;;5011313;28;20460;-58
2023/01/26 13:42:51;;;;;;;18.57;10.97;;;;;;;;;;5013016;28;20448;-59
2023/01/26 13:45:23;;;;;;;17.17;11.03;;;;;;;;;;5012633;28;20487;-58
2023/01/26 13:47:50;;;;;;;17.47;11.37;;;;;;;;;;5012202;28;20472;-60
2023/01/26 13:50:22;;;;;;;17.10;10.47;;;;;;;;;;5012643;28;20429;-58
2023/01/26 13:52:49;;;;;;;17.60;10.90;;;;;;;;;;5012686;28;20439;-56
2023/01/26 13:55:21;;;;;;;16.77;10.67;;;;;;;;;;5012592;28;20523;-57
2023/01/26 13:57:48;;;;;;;16.53;10.77;;;;;;;;;;5012446;28;20494;-59
2023/01/26 14:00:15;;;;;;;14.97;10.40;;;;;;;;;;5012767;28;20436;-57
2023/01/26 14:02:48;;;;;;;18.63;10.77;;;;;;;;;;5012307;28;20440;-60
2023/01/26 14:05:21;;;;;;;17.00;10.23;;;;;;;;;;5012333;28;20535;-58
2023/01/26 14:07:47;;;;;;;16.67;10.80;;;;;;;;;;5012224;28;20451;-57
2023/01/26 14:10:16;;;;;;;17.63;10.13;;;;;;;;;;5010587;28;20790;-54
2023/01/26 14:12:43;;;;;;;19.23;10.70;;;;;;;;;;5009067;28;20488;-56
2023/01/26 14:15:22;;;;;;;15.90;10.87;;;;;;;;;;5012064;28;20441;-55
2023/01/26 14:17:50;;;;;;;17.00;10.63;;;;;;;;;;5011851;28;21044;-56
2023/01/26 14:20:20;;;;;;;14.73;10.07;;;;;;;;;;5012407;28;20576;-55
2023/01/26 14:23:01;;;;;;;18.40;11.33;;;;;;;;;;5012264;28;20782;-55
2023/01/26 14:25:27;;;;;;;17.43;10.30;;;;;;;;;;5012134;28;20433;-56
2023/01/26 14:27:53;;;;;;;15.67;9.70;;;;;;;;;;5012215;28;20463;-56
2023/01/26 14:30:24;;;;;;;19.20;10.67;;;;;;;;;;5012288;28;20198;-56
2023/01/26 14:33:03;;;;;;;23.07;11.80;;;;;;;;;;5012118;28;20285;-56
2023/01/26 14:35:29;;;;;;;18.43;10.87;;;;;;;;;;5012199;28;20436;-55
2023/01/26 14:38:05;;;;;;;22.30;11.60;;;;;;;;;;5010187;28;20492;-56
2023/01/26 14:40:31;;;;;;;21.63;11.73;;;;;;;;;;5011700;28;20966;-56
2023/01/26 14:42:57;;;;;;;21.10;11.53;;;;;;;;;;5011850;28;20472;-56
2023/01/26 14:45:26;;;;;;;26.47;12.67;;;;;;;;;;5011450;28;20488;-56
2023/01/26 14:47:53;;;;;;;21.50;12.03;;;;;;;;;;5011392;28;20510;-56
2023/01/26 14:50:22;;;;;;;24.63;12.57;;;;;;;;;;5011478;28;20453;-56
2023/01/26 14:52:49;;;;;;;23.37;12.37;;;;;;;;;;5011453;28;20447;-56
2023/01/26 14:55:17;;;;;;;21.80;11.70;;;;;;;;;;5011494;28;20482;-56
2023/01/26 14:57:43;;;;;;;19.33;11.00;;;;;;;;;;5011387;28;20483;-56
2023/01/26 15:00:19;;;;;;;24.03;11.33;;;;;;;;;;5011391;28;20444;-56
2023/01/26 15:02:47;;;;;;;30.23;13.13;;;;;;;;;;5011321;28;20201;-57
2023/01/26 15:05:15;;;;;;;42.23;13.47;;;;;;;;;;5011544;28;20440;-56
2023/01/26 15:07:44;;;;;;;21.13;11.40;;;;;;;;;;5011422;28;20437;-57